KGLH

Greenville Mid-Delta Airport

Greenville, Mississippi, USA
METAR KGLH 140353Z AUTO 01012KT 10SM OVC060 02/M03 A3040 RMK AO2 SLP304 T00171028
Observed Flight Rules
Nov-14 @ 03:53 UTC (56 minutes ago) Visual Flight Rules
Wind Visibility Clouds
10° at 12 knots 10 miles
  • Overcast at 6,000' AGL
Temperatures Readings
Current 2°C / 36°F
Dewpoint -3°C / 27°F
Humidity 70%
Altimeter 30.4" Hg
Pressure 1030.4 hPa
Elevation 45
METAR KGLH 140353Z AUTO 01012KT 10SM OVC060 02/M03 A3040 RMK AO2 SLP304 T00171028
Observed Flight Rules
Nov-14 @ 03:53 UTC
(56 minutes ago)
VFR
Wind Visibility
10° at 12 knots 10 miles
Clouds
  • Overcast at 6,000' AGL
Temperature Dewpoint
2°C / 36°F -3°C / 27°F
Humidity Altimeter Pressure
70% 30.4" Hg 1030.4 hPa